Time,TemperatureF,DewpointF,PressureIn,WindDirection,WindDirectionDegrees,WindSpeedMPH,WindSpeedGustMPH,Humidity,HourlyPrecipIn,Conditions,Clouds,dailyrainin,SolarRadiationWatts/m^2,SoftwareType,DateUTC
2013-07-17 00:00:00,78.0,71.0,-100.00,SW,225,5.0,-999.0,78,-99.99,,,-99.99,0.000000,,2013-07-17 04:00:00,
2013-07-17 00:43:00,78.0,71.0,-100.00,SW,225,5.0,-999.0,78,-99.99,,,-99.99,0.000000,,2013-07-17 04:43:00,
2013-07-17 00:53:00,78.0,71.0,-100.00,SW,225,5.0,-999.0,78,-99.99,,,-99.99,0.000000,,2013-07-17 04:53:00,
2013-07-17 01:00:00,77.0,70.0,-100.00,SW,225,6.0,-999.0,79,-99.99,,,-99.99,0.000000,,2013-07-17 05:00:00,
2013-07-17 01:43:00,77.0,70.0,-100.00,SW,225,6.0,-999.0,79,-99.99,,,-99.99,0.000000,,2013-07-17 05:43:00,
2013-07-17 01:52:00,77.0,70.0,-100.00,SW,225,6.0,-999.0,79,-99.99,,,-99.99,0.000000,,2013-07-17 05:52:00,
2013-07-17 02:00:00,78.0,70.0,-100.00,SW,225,6.0,-999.0,76,-99.99,,,-99.99,0.000000,,2013-07-17 06:00:00,
2013-07-17 02:43:00,78.0,70.0,-100.00,SW,225,6.0,-999.0,76,-99.99,,,-99.99,0.000000,,2013-07-17 06:43:00,
2013-07-17 02:52:00,78.0,70.0,-100.00,SW,225,6.0,-999.0,76,-99.99,,,-99.99,0.000000,,2013-07-17 06:52:00,
2013-07-17 03:00:00,77.0,70.0,-100.00,SW,225,5.0,-999.0,78,-99.99,,,-99.99,0.000000,,2013-07-17 07:00:00,
2013-07-17 03:42:00,77.0,70.0,-100.00,SW,225,5.0,-999.0,78,-99.99,,,-99.99,0.000000,,2013-07-17 07:42:00,
2013-07-17 03:52:00,77.0,70.0,-100.00,SW,225,5.0,-999.0,78,-99.99,,,-99.99,0.000000,,2013-07-17 07:52:00,
2013-07-17 04:00:00,76.0,71.0,-100.00,SW,225,5.0,-999.0,84,-99.99,,,-99.99,0.000000,,2013-07-17 08:00:00,
2013-07-17 04:43:00,76.0,71.0,-100.00,SW,225,5.0,-999.0,84,-99.99,,,-99.99,0.000000,,2013-07-17 08:43:00,
2013-07-17 04:53:00,76.0,71.0,-100.00,SW,225,5.0,-999.0,84,-99.99,,,-99.99,0.000000,,2013-07-17 08:53:00,
2013-07-17 05:00:00,74.0,71.0,-100.00,SW,225,6.0,-999.0,89,-99.99,,,-99.99,0.000000,,2013-07-17 09:00:00,
2013-07-17 05:43:00,74.0,71.0,-100.00,SW,225,6.0,-999.0,89,-99.99,,,-99.99,0.000000,,2013-07-17 09:43:00,
2013-07-17 05:52:00,74.0,71.0,-100.00,SW,225,6.0,-999.0,89,-99.99,,,-99.99,0.000000,,2013-07-17 09:52:00,
2013-07-17 06:00:00,74.0,71.0,-100.00,SW,225,5.0,-999.0,91,-99.99,,,-99.99,0.000000,,2013-07-17 10:00:00,
2013-07-17 06:43:00,74.0,71.0,-100.00,SW,225,5.0,-999.0,91,-99.99,,,-99.99,0.000000,,2013-07-17 10:43:00,
2013-07-17 06:52:00,74.0,71.0,-100.00,SW,225,5.0,-999.0,91,-99.99,,,-99.99,0.000000,,2013-07-17 10:52:00,
2013-07-17 07:00:00,75.0,71.0,-100.00,WSW,247,4.0,-999.0,88,-99.99,,,-99.99,11.600000,,2013-07-17 11:00:00,
2013-07-17 07:42:00,75.0,71.0,-100.00,WSW,247,4.0,-999.0,88,-99.99,,,-99.99,11.600000,,2013-07-17 11:42:00,
2013-07-17 07:52:00,75.0,71.0,-100.00,WSW,247,4.0,-999.0,88,-99.99,,,-99.99,11.600000,,2013-07-17 11:52:00,
2013-07-17 08:00:00,75.0,72.0,-100.00,SW,225,5.0,-999.0,88,-99.99,,,-99.99,103.239998,,2013-07-17 12:00:00,
2013-07-17 08:43:00,75.0,72.0,-100.00,SW,225,5.0,-999.0,88,-99.99,,,-99.99,103.239998,,2013-07-17 12:43:00,
2013-07-17 08:53:00,75.0,72.0,-100.00,SW,225,5.0,-999.0,88,-99.99,,,-99.99,103.239998,,2013-07-17 12:53:00,
2013-07-17 09:00:00,77.0,72.0,-100.00,SW,225,5.0,-999.0,83,-99.99,,,-99.99,279.559998,,2013-07-17 13:00:00,
2013-07-17 09:43:00,77.0,72.0,-100.00,SW,225,5.0,-999.0,83,-99.99,,,-99.99,279.559998,,2013-07-17 13:43:00,
2013-07-17 09:53:00,77.0,72.0,-100.00,SW,225,5.0,-999.0,83,-99.99,,,-99.99,279.559998,,2013-07-17 13:53:00,
2013-07-17 10:00:00,79.0,72.0,-100.00,SW,225,5.0,-999.0,79,-99.99,,,-99.99,446.600006,,2013-07-17 14:00:00,
2013-07-17 10:43:00,79.0,72.0,-100.00,SW,225,5.0,-999.0,79,-99.99,,,-99.99,446.600006,,2013-07-17 14:43:00,
2013-07-17 10:52:00,79.0,72.0,-100.00,SW,225,5.0,-999.0,79,-99.99,,,-99.99,446.600006,,2013-07-17 14:52:00,
2013-07-17 11:00:00,80.0,72.0,-100.00,SW,225,6.0,-999.0,77,-99.99,,,-99.99,605.520020,,2013-07-17 15:00:00,
2013-07-17 11:43:00,80.0,72.0,-100.00,SW,225,6.0,-999.0,77,-99.99,,,-99.99,605.520020,,2013-07-17 15:43:00,
2013-07-17 11:52:00,80.0,72.0,-100.00,SW,225,6.0,-999.0,77,-99.99,,,-99.99,605.520020,,2013-07-17 15:52:00,
2013-07-17 13:00:00,81.0,72.0,-100.00,WSW,247,6.0,-999.0,73,-99.99,,,-99.99,818.960022,,2013-07-17 17:00:00,
2013-07-17 13:43:00,81.0,72.0,-100.00,WSW,247,6.0,-999.0,73,-99.99,,,-99.99,818.960022,,2013-07-17 17:43:00,
2013-07-17 13:52:00,81.0,72.0,-100.00,WSW,247,6.0,-999.0,73,-99.99,,,-99.99,818.960022,,2013-07-17 17:52:00,
2013-07-17 14:00:00,83.0,72.0,-100.00,WSW,247,6.0,-999.0,70,-99.99,,,-99.99,858.400024,,2013-07-17 18:00:00,
2013-07-17 14:43:00,83.0,72.0,-100.00,WSW,247,6.0,-999.0,70,-99.99,,,-99.99,858.400024,,2013-07-17 18:43:00,
2013-07-17 14:52:00,83.0,72.0,-100.00,WSW,247,6.0,-999.0,70,-99.99,,,-99.99,858.400024,,2013-07-17 18:52:00,
2013-07-17 15:00:00,84.0,72.0,-100.00,SW,225,6.0,-999.0,66,-99.99,,,-99.99,852.599976,,2013-07-17 19:00:00,
2013-07-17 15:53:00,84.0,72.0,-100.00,SW,225,6.0,-999.0,66,-99.99,,,-99.99,852.599976,,2013-07-17 19:53:00,
2013-07-17 16:00:00,84.0,71.0,-100.00,WSW,247,6.0,-999.0,64,-99.99,,,-99.99,799.239990,,2013-07-17 20:00:00,
2013-07-17 16:53:00,84.0,71.0,-100.00,WSW,247,6.0,-999.0,64,-99.99,,,-99.99,799.239990,,2013-07-17 20:53:00,
2013-07-17 17:00:00,85.0,70.0,-100.00,SW,225,5.0,-999.0,61,-99.99,,,-99.99,611.320007,,2013-07-17 21:00:00,
2013-07-17 17:42:00,85.0,70.0,-100.00,SW,225,5.0,-999.0,61,-99.99,,,-99.99,611.320007,,2013-07-17 21:42:00,
2013-07-17 17:53:00,85.0,70.0,-100.00,SW,225,5.0,-999.0,61,-99.99,,,-99.99,611.320007,,2013-07-17 21:53:00,
2013-07-17 18:00:00,81.0,71.0,-100.00,WSW,247,6.0,-999.0,71,-99.99,,,-99.99,455.880005,,2013-07-17 22:00:00,
2013-07-17 18:43:00,81.0,71.0,-100.00,WSW,247,6.0,-999.0,71,-99.99,,,-99.99,455.880005,,2013-07-17 22:43:00,
2013-07-17 18:53:00,81.0,71.0,-100.00,WSW,247,6.0,-999.0,71,-99.99,,,-99.99,455.880005,,2013-07-17 22:53:00,
2013-07-17 19:00:00,79.0,72.0,-100.00,SW,225,6.0,-999.0,78,-99.99,,,-99.99,308.559998,,2013-07-17 23:00:00,
2013-07-17 19:43:00,79.0,72.0,-100.00,SW,225,6.0,-999.0,78,-99.99,,,-99.99,308.559998,,2013-07-17 23:43:00,
2013-07-17 19:52:00,79.0,72.0,-100.00,SW,225,6.0,-999.0,78,-99.99,,,-99.99,308.559998,,2013-07-17 23:52:00,
2013-07-17 20:00:00,79.0,71.0,-100.00,SW,225,7.0,-999.0,79,-99.99,,,-99.99,241.279999,,2013-07-18 00:00:00,
2013-07-17 20:43:00,79.0,71.0,-100.00,SW,225,7.0,-999.0,79,-99.99,,,-99.99,241.279999,,2013-07-18 00:43:00,
2013-07-17 20:52:00,79.0,71.0,-100.00,SW,225,7.0,-999.0,79,-99.99,,,-99.99,241.279999,,2013-07-18 00:52:00,
2013-07-17 21:00:00,80.0,72.0,-100.00,SW,225,4.0,-999.0,76,-99.99,,,-99.99,76.559998,,2013-07-18 01:00:00,
2013-07-17 21:43:00,80.0,72.0,-100.00,SW,225,4.0,-999.0,76,-99.99,,,-99.99,76.559998,,2013-07-18 01:43:00,
2013-07-17 21:53:00,80.0,72.0,-100.00,SW,225,4.0,-999.0,76,-99.99,,,-99.99,76.559998,,2013-07-18 01:53:00,
2013-07-17 22:00:00,79.0,71.0,-100.00,SW,225,3.0,-999.0,75,-99.99,,,-99.99,3.480000,,2013-07-18 02:00:00,
2013-07-17 22:43:00,79.0,71.0,-100.00,SW,225,3.0,-999.0,75,-99.99,,,-99.99,3.480000,,2013-07-18 02:43:00,
2013-07-17 22:52:00,79.0,71.0,-100.00,SW,225,3.0,-999.0,75,-99.99,,,-99.99,3.480000,,2013-07-18 02:52:00,
2013-07-17 23:00:00,78.0,71.0,-100.00,SW,225,3.0,-999.0,77,-99.99,,,-99.99,0.000000,,2013-07-18 03:00:00,
2013-07-17 23:52:00,78.0,71.0,-100.00,SW,225,3.0,-999.0,77,-99.99,,,-99.99,0.000000,,2013-07-18 03:52:00,